sensor_id;sensor_type;location;lat;lon;timestamp;pressure;altitude;pressure_sealevel;temperature;humidity
40872;BME280;26591;43.264;26.940;2024-02-16T00:02:17;99546.41;;;6.03;73.57
40872;BME280;26591;43.264;26.940;2024-02-16T00:04:44;99532.66;;;6.11;74.06
40872;BME280;26591;43.264;26.940;2024-02-16T00:07:10;99536.78;;;5.81;74.17
40872;BME280;26591;43.264;26.940;2024-02-16T00:09:35;99533.53;;;5.89;74.23
40872;BME280;26591;43.264;26.940;2024-02-16T00:12:01;99531.75;;;6.01;74.37
40872;BME280;26591;43.264;26.940;2024-02-16T00:14:26;99531.81;;;5.99;74.13
40872;BME280;26591;43.264;26.940;2024-02-16T00:17:04;99534.00;;;6.05;74.27
40872;BME280;26591;43.264;26.940;2024-02-16T00:22:52;99539.63;;;6.01;73.98
40872;BME280;26591;43.264;26.940;2024-02-16T00:25:17;99544.25;;;5.97;74.33
40872;BME280;26591;43.264;26.940;2024-02-16T00:27:43;99530.66;;;5.92;74.06
40872;BME280;26591;43.264;26.940;2024-02-16T00:30:09;99533.28;;;5.92;74.47
40872;BME280;26591;43.264;26.940;2024-02-16T00:32:35;99525.75;;;5.99;74.30
40872;BME280;26591;43.264;26.940;2024-02-16T00:35:02;99535.41;;;5.98;74.43
40872;BME280;26591;43.264;26.940;2024-02-16T00:37:28;99526.13;;;6.05;74.03
40872;BME280;26591;43.264;26.940;2024-02-16T00:39:54;99527.16;;;6.14;74.16
40872;BME280;26591;43.264;26.940;2024-02-16T00:42:20;99518.34;;;6.04;74.32
40872;BME280;26591;43.264;26.940;2024-02-16T00:44:48;99512.25;;;6.03;73.97
40872;BME280;26591;43.264;26.940;2024-02-16T00:47:14;99514.56;;;5.85;74.95
40872;BME280;26591;43.264;26.940;2024-02-16T00:49:42;99509.22;;;5.75;74.96
40872;BME280;26591;43.264;26.940;2024-02-16T00:52:23;99507.56;;;5.63;75.93
40872;BME280;26591;43.264;26.940;2024-02-16T00:54:49;99504.59;;;5.56;75.84
40872;BME280;26591;43.264;26.940;2024-02-16T00:57:15;99512.13;;;5.61;75.84
40872;BME280;26591;43.264;26.940;2024-02-16T00:59:41;99519.38;;;5.69;76.11
40872;BME280;26591;43.264;26.940;2024-02-16T01:02:07;99515.22;;;5.66;76.42
40872;BME280;26591;43.264;26.940;2024-02-16T01:04:35;99515.03;;;5.79;75.88
40872;BME280;26591;43.264;26.940;2024-02-16T01:07:00;99512.31;;;5.69;76.16
40872;BME280;26591;43.264;26.940;2024-02-16T01:09:26;99511.25;;;5.72;76.33
40872;BME280;26591;43.264;26.940;2024-02-16T01:11:52;99507.31;;;5.77;76.07
40872;BME280;26591;43.264;26.940;2024-02-16T01:14:18;99499.03;;;5.82;75.99
40872;BME280;26591;43.264;26.940;2024-02-16T01:16:44;99499.91;;;5.71;76.65
40872;BME280;26591;43.264;26.940;2024-02-16T01:19:10;99498.28;;;5.59;77.09
40872;BME280;26591;43.264;26.940;2024-02-16T01:21:36;99501.25;;;5.54;77.14
40872;BME280;26591;43.264;26.940;2024-02-16T01:24:01;99502.44;;;5.61;77.22
40872;BME280;26591;43.264;26.940;2024-02-16T01:26:27;99515.56;;;5.61;76.63
40872;BME280;26591;43.264;26.940;2024-02-16T01:28:53;99505.75;;;5.75;76.40
40872;BME280;26591;43.264;26.940;2024-02-16T01:31:19;99510.06;;;5.64;77.43
40872;BME280;26591;43.264;26.940;2024-02-16T01:33:44;99514.84;;;5.59;77.10
40872;BME280;26591;43.264;26.940;2024-02-16T01:36:10;99518.44;;;5.70;76.68
40872;BME280;26591;43.264;26.940;2024-02-16T01:38:35;99520.19;;;5.69;76.79
40872;BME280;26591;43.264;26.940;2024-02-16T01:41:01;99521.50;;;5.75;76.60
40872;BME280;26591;43.264;26.940;2024-02-16T01:43:27;99519.84;;;5.62;77.36
40872;BME280;26591;43.264;26.940;2024-02-16T01:45:53;99517.56;;;5.69;77.06
40872;BME280;26591;43.264;26.940;2024-02-16T01:48:19;99504.47;;;5.58;77.30
40872;BME280;26591;43.264;26.940;2024-02-16T01:50:45;99521.19;;;5.57;77.37
40872;BME280;26591;43.264;26.940;2024-02-16T01:53:12;99512.81;;;5.52;77.47
40872;BME280;26591;43.264;26.940;2024-02-16T01:55:38;99514.84;;;5.59;77.16
40872;BME280;26591;43.264;26.940;2024-02-16T01:58:04;99517.84;;;5.55;77.81
40872;BME280;26591;43.264;26.940;2024-02-16T02:00:29;99524.06;;;5.42;78.32
40872;BME280;26591;43.264;26.940;2024-02-16T02:02:55;99523.72;;;5.58;77.26
40872;BME280;26591;43.264;26.940;2024-02-16T02:05:23;99521.09;;;5.58;77.94
40872;BME280;26591;43.264;26.940;2024-02-16T02:07:49;99533.50;;;5.56;77.87
40872;BME280;26591;43.264;26.940;2024-02-16T02:10:15;99532.78;;;5.54;78.19
40872;BME280;26591;43.264;26.940;2024-02-16T02:12:42;99525.00;;;5.53;77.76
40872;BME280;26591;43.264;26.940;2024-02-16T02:15:08;99528.22;;;5.45;77.99
40872;BME280;26591;43.264;26.940;2024-02-16T02:17:34;99521.28;;;5.67;78.17
40872;BME280;26591;43.264;26.940;2024-02-16T02:20:01;99530.88;;;5.56;77.71
40872;BME280;26591;43.264;26.940;2024-02-16T02:22:27;99523.31;;;5.52;78.01
40872;BME280;26591;43.264;26.940;2024-02-16T02:24:53;99532.06;;;5.52;78.41
40872;BME280;26591;43.264;26.940;2024-02-16T02:27:20;99536.13;;;5.56;77.97
40872;BME280;26591;43.264;26.940;2024-02-16T02:29:46;99535.06;;;5.47;78.17
40872;BME280;26591;43.264;26.940;2024-02-16T02:32:12;99544.00;;;5.56;78.44
40872;BME280;26591;43.264;26.940;2024-02-16T02:34:38;99543.63;;;5.38;78.71
40872;BME280;26591;43.264;26.940;2024-02-16T02:37:03;99553.06;;;5.41;78.45
40872;BME280;26591;43.264;26.940;2024-02-16T02:39:31;99552.31;;;5.61;78.48
40872;BME280;26591;43.264;26.940;2024-02-16T02:41:56;99553.28;;;5.49;78.10
40872;BME280;26591;43.264;26.940;2024-02-16T02:44:26;99557.97;;;5.45;78.81
40872;BME280;26591;43.264;26.940;2024-02-16T02:46:52;99561.78;;;5.64;78.19
40872;BME280;26591;43.264;26.940;2024-02-16T02:49:18;99554.59;;;5.66;77.76
40872;BME280;26591;43.264;26.940;2024-02-16T02:51:44;99559.25;;;5.51;77.87
40872;BME280;26591;43.264;26.940;2024-02-16T02:54:10;99569.75;;;5.51;78.24
40872;BME280;26591;43.264;26.940;2024-02-16T02:56:51;99562.72;;;5.40;78.51
40872;BME280;26591;43.264;26.940;2024-02-16T02:59:16;99568.81;;;5.41;79.19
40872;BME280;26591;43.264;26.940;2024-02-16T03:01:44;99565.00;;;5.33;78.74
40872;BME280;26591;43.264;26.940;2024-02-16T03:04:10;99570.97;;;5.35;78.94
40872;BME280;26591;43.264;26.940;2024-02-16T03:06:36;99570.47;;;5.30;79.56
40872;BME280;26591;43.264;26.940;2024-02-16T03:09:01;99567.75;;;5.32;79.76
40872;BME280;26591;43.264;26.940;2024-02-16T03:11:27;99565.00;;;5.22;80.20
40872;BME280;26591;43.264;26.940;2024-02-16T03:13:52;99568.94;;;5.28;80.71
40872;BME280;26591;43.264;26.940;2024-02-16T03:16:18;99567.59;;;5.45;79.40
40872;BME280;26591;43.264;26.940;2024-02-16T03:18:44;99572.41;;;5.28;80.08
40872;BME280;26591;43.264;26.940;2024-02-16T03:21:13;99564.03;;;5.34;79.83
40872;BME280;26591;43.264;26.940;2024-02-16T03:23:40;99571.81;;;5.47;79.95
40872;BME280;26591;43.264;26.940;2024-02-16T03:26:16;99565.34;;;5.29;80.04
40872;BME280;26591;43.264;26.940;2024-02-16T03:28:45;99573.72;;;5.45;79.93
40872;BME280;26591;43.264;26.940;2024-02-16T03:31:20;99570.00;;;5.37;80.22
40872;BME280;26591;43.264;26.940;2024-02-16T03:33:46;99578.72;;;5.26;79.83
40872;BME280;26591;43.264;26.940;2024-02-16T03:36:13;99576.00;;;5.27;80.30
40872;BME280;26591;43.264;26.940;2024-02-16T03:38:43;99574.06;;;5.18;80.37
40872;BME280;26591;43.264;26.940;2024-02-16T03:41:13;99580.03;;;5.20;80.66
40872;BME280;26591;43.264;26.940;2024-02-16T03:43:39;99591.97;;;5.24;80.05
40872;BME280;26591;43.264;26.940;2024-02-16T03:46:05;99585.88;;;5.35;80.43
40872;BME280;26591;43.264;26.940;2024-02-16T03:48:30;99588.38;;;5.37;79.39
40872;BME280;26591;43.264;26.940;2024-02-16T03:50:56;99592.06;;;5.23;80.20
40872;BME280;26591;43.264;26.940;2024-02-16T03:53:22;99596.75;;;5.53;79.51
40872;BME280;26591;43.264;26.940;2024-02-16T03:55:48;99593.41;;;5.40;79.47
40872;BME280;26591;43.264;26.940;2024-02-16T03:58:13;99592.19;;;5.32;79.82
40872;BME280;26591;43.264;26.940;2024-02-16T04:00:39;99596.34;;;5.24;80.03
40872;BME280;26591;43.264;26.940;2024-02-16T04:03:04;99604.59;;;5.08;80.91
40872;BME280;26591;43.264;26.940;2024-02-16T04:05:30;99599.91;;;5.00;81.64
40872;BME280;26591;43.264;26.940;2024-02-16T04:07:58;99606.25;;;5.20;81.69
40872;BME280;26591;43.264;26.940;2024-02-16T04:10:27;99603.88;;;5.17;81.54
40872;BME280;26591;43.264;26.940;2024-02-16T04:12:56;99598.66;;;5.40;81.13
40872;BME280;26591;43.264;26.940;2024-02-16T04:15:21;99605.22;;;5.34;80.62
40872;BME280;26591;43.264;26.940;2024-02-16T04:17:47;99603.53;;;5.33;80.66
40872;BME280;26591;43.264;26.940;2024-02-16T04:20:14;99612.72;;;5.27;80.85
40872;BME280;26591;43.264;26.940;2024-02-16T04:22:41;99601.75;;;5.33;80.51
40872;BME280;26591;43.264;26.940;2024-02-16T04:25:07;99612.50;;;5.42;80.31
40872;BME280;26591;43.264;26.940;2024-02-16T04:27:32;99611.66;;;5.41;80.25
40872;BME280;26591;43.264;26.940;2024-02-16T04:29:58;99615.47;;;5.48;80.72
40872;BME280;26591;43.264;26.940;2024-02-16T04:32:23;99614.53;;;5.49;80.08
40872;BME280;26591;43.264;26.940;2024-02-16T04:34:51;99616.41;;;5.70;79.48
40872;BME280;26591;43.264;26.940;2024-02-16T04:37:17;99622.38;;;5.72;79.54
40872;BME280;26591;43.264;26.940;2024-02-16T04:39:45;99619.75;;;5.72;79.45
40872;BME280;26591;43.264;26.940;2024-02-16T04:42:11;99626.81;;;5.60;79.32
40872;BME280;26591;43.264;26.940;2024-02-16T04:44:37;99625.50;;;5.55;80.42
40872;BME280;26591;43.264;26.940;2024-02-16T04:47:06;99642.69;;;5.47;80.84
40872;BME280;26591;43.264;26.940;2024-02-16T04:49:33;99640.19;;;5.69;79.89
40872;BME280;26591;43.264;26.940;2024-02-16T04:51:58;99644.22;;;5.39;80.76
40872;BME280;26591;43.264;26.940;2024-02-16T04:54:26;99648.16;;;5.44;80.83
40872;BME280;26591;43.264;26.940;2024-02-16T04:56:51;99643.63;;;5.35;81.58
40872;BME280;26591;43.264;26.940;2024-02-16T04:59:17;99648.63;;;5.38;81.88
40872;BME280;26591;43.264;26.940;2024-02-16T05:01:46;99647.44;;;5.42;81.38
40872;BME280;26591;43.264;26.940;2024-02-16T05:04:12;99641.00;;;5.35;82.00
40872;BME280;26591;43.264;26.940;2024-02-16T05:06:39;99651.66;;;5.56;81.85
40872;BME280;26591;43.264;26.940;2024-02-16T05:09:05;99657.94;;;5.54;81.45
40872;BME280;26591;43.264;26.940;2024-02-16T05:11:34;99658.53;;;5.34;81.96
40872;BME280;26591;43.264;26.940;2024-02-16T05:14:00;99651.38;;;5.25;82.36
40872;BME280;26591;43.264;26.940;2024-02-16T05:16:27;99660.28;;;5.23;83.15
40872;BME280;26591;43.264;26.940;2024-02-16T05:18:53;99656.41;;;5.28;83.32
40872;BME280;26591;43.264;26.940;2024-02-16T05:21:18;99659.03;;;5.28;83.13
40872;BME280;26591;43.264;26.940;2024-02-16T05:23:44;99660.94;;;5.38;83.14
40872;BME280;26591;43.264;26.940;2024-02-16T05:26:09;99660.06;;;5.37;82.98
40872;BME280;26591;43.264;26.940;2024-02-16T05:28:35;99658.72;;;5.09;83.81
40872;BME280;26591;43.264;26.940;2024-02-16T05:31:12;99662.53;;;5.16;84.26
40872;BME280;26591;43.264;26.940;2024-02-16T05:33:40;99663.63;;;5.13;84.36
40872;BME280;26591;43.264;26.940;2024-02-16T05:36:06;99669.25;;;5.20;84.46
40872;BME280;26591;43.264;26.940;2024-02-16T05:38:32;99674.56;;;5.43;83.92
40872;BME280;26591;43.264;26.940;2024-02-16T05:41:00;99673.19;;;5.37;83.97
40872;BME280;26591;43.264;26.940;2024-02-16T05:43:25;99679.88;;;5.30;84.15
40872;BME280;26591;43.264;26.940;2024-02-16T05:45:52;99681.50;;;5.08;84.39
40872;BME280;26591;43.264;26.940;2024-02-16T05:48:18;99693.56;;;6.03;86.78
40872;BME280;26591;43.264;26.940;2024-02-16T05:50:44;99686.72;;;6.23;85.41
40872;BME280;26591;43.264;26.940;2024-02-16T05:53:10;99689.00;;;5.71;82.85
40872;BME280;26591;43.264;26.940;2024-02-16T05:55:36;99685.53;;;5.48;82.75
40872;BME280;26591;43.264;26.940;2024-02-16T05:58:02;99693.91;;;5.76;84.34
40872;BME280;26591;43.264;26.940;2024-02-16T06:00:32;99695.94;;;5.84;83.43
40872;BME280;26591;43.264;26.940;2024-02-16T06:02:58;99695.22;;;5.93;82.80
40872;BME280;26591;43.264;26.940;2024-02-16T06:05:24;99690.28;;;6.45;82.37
40872;BME280;26591;43.264;26.940;2024-02-16T06:07:49;99695.94;;;6.73;81.03
40872;BME280;26591;43.264;26.940;2024-02-16T06:10:15;99695.91;;;7.48;80.28
40872;BME280;26591;43.264;26.940;2024-02-16T06:12:40;99697.69;;;7.69;77.94
40872;BME280;26591;43.264;26.940;2024-02-16T06:15:06;99692.72;;;7.75;76.04
40872;BME280;26591;43.264;26.940;2024-02-16T06:17:32;99696.38;;;7.32;74.52
40872;BME280;26591;43.264;26.940;2024-02-16T06:19:58;99698.47;;;6.63;76.06
40872;BME280;26591;43.264;26.940;2024-02-16T06:22:23;99700.72;;;5.90;79.43
40872;BME280;26591;43.264;26.940;2024-02-16T06:24:49;99699.16;;;5.87;80.35
40872;BME280;26591;43.264;26.940;2024-02-16T06:27:15;99707.53;;;6.04;81.54
40872;BME280;26591;43.264;26.940;2024-02-16T06:29:41;99708.47;;;6.37;82.08
40872;BME280;26591;43.264;26.940;2024-02-16T06:32:07;99702.03;;;6.07;80.70
40872;BME280;26591;43.264;26.940;2024-02-16T06:34:32;99705.84;;;5.91;80.89
40872;BME280;26591;43.264;26.940;2024-02-16T06:36:58;99706.06;;;5.65;81.60
40872;BME280;26591;43.264;26.940;2024-02-16T06:39:24;99707.63;;;5.68;82.00
40872;BME280;26591;43.264;26.940;2024-02-16T06:41:49;99718.38;;;5.76;82.49
40872;BME280;26591;43.264;26.940;2024-02-16T06:47:34;99717.31;;;5.79;83.00
40872;BME280;26591;43.264;26.940;2024-02-16T06:49:59;99714.44;;;5.93;83.19
40872;BME280;26591;43.264;26.940;2024-02-16T06:52:24;99727.56;;;5.93;82.61
40872;BME280;26591;43.264;26.940;2024-02-16T06:54:50;99712.28;;;5.76;82.91
40872;BME280;26591;43.264;26.940;2024-02-16T06:57:17;99724.94;;;5.71;83.04
40872;BME280;26591;43.264;26.940;2024-02-16T06:59:42;99721.34;;;5.60;83.67
40872;BME280;26591;43.264;26.940;2024-02-16T07:02:08;99724.44;;;5.54;83.51
40872;BME280;26591;43.264;26.940;2024-02-16T07:04:34;99723.94;;;5.38;84.66
40872;BME280;26591;43.264;26.940;2024-02-16T07:07:00;99722.03;;;5.51;84.45
40872;BME280;26591;43.264;26.940;2024-02-16T07:09:25;99722.97;;;5.39;84.51
40872;BME280;26591;43.264;26.940;2024-02-16T07:11:50;99716.97;;;5.25;85.02
40872;BME280;26591;43.264;26.940;2024-02-16T07:14:17;99721.09;;;5.41;84.50
40872;BME280;26591;43.264;26.940;2024-02-16T07:16:42;99726.56;;;5.38;84.03
40872;BME280;26591;43.264;26.940;2024-02-16T07:19:08;99719.06;;;5.44;84.53
40872;BME280;26591;43.264;26.940;2024-02-16T07:21:34;99723.94;;;5.49;83.32
40872;BME280;26591;43.264;26.940;2024-02-16T07:23:59;99717.03;;;5.48;83.27
40872;BME280;26591;43.264;26.940;2024-02-16T07:26:25;99726.63;;;5.72;82.54
40872;BME280;26591;43.264;26.940;2024-02-16T07:28:50;99722.56;;;5.68;82.45
40872;BME280;26591;43.264;26.940;2024-02-16T07:31:16;99731.97;;;5.70;81.72
40872;BME280;26591;43.264;26.940;2024-02-16T07:33:42;99734.13;;;5.65;81.31
40872;BME280;26591;43.264;26.940;2024-02-16T07:36:07;99733.47;;;5.39;82.08
40872;BME280;26591;43.264;26.940;2024-02-16T07:38:33;99729.06;;;5.39;82.21
40872;BME280;26591;43.264;26.940;2024-02-16T07:40:59;99735.91;;;5.76;81.50
40872;BME280;26591;43.264;26.940;2024-02-16T07:43:27;99738.88;;;5.48;82.17
40872;BME280;26591;43.264;26.940;2024-02-16T07:45:53;99745.50;;;5.30;82.73
40872;BME280;26591;43.264;26.940;2024-02-16T07:48:22;99734.41;;;5.26;83.31
40872;BME280;26591;43.264;26.940;2024-02-16T07:50:48;99747.97;;;5.20;83.51
40872;BME280;26591;43.264;26.940;2024-02-16T07:53:15;99747.31;;;5.29;84.10
40872;BME280;26591;43.264;26.940;2024-02-16T07:55:41;99744.69;;;5.29;83.74
40872;BME280;26591;43.264;26.940;2024-02-16T07:58:07;99749.59;;;5.45;83.21
40872;BME280;26591;43.264;26.940;2024-02-16T08:00:35;99749.00;;;5.42;83.37
40872;BME280;26591;43.264;26.940;2024-02-16T08:03:00;99753.25;;;5.31;83.69
40872;BME280;26591;43.264;26.940;2024-02-16T08:05:26;99757.00;;;5.52;83.50
40872;BME280;26591;43.264;26.940;2024-02-16T08:07:52;99748.50;;;5.37;83.24
40872;BME280;26591;43.264;26.940;2024-02-16T08:10:19;99754.69;;;5.24;83.93
40872;BME280;26591;43.264;26.940;2024-02-16T08:12:48;99746.03;;;5.46;83.49
40872;BME280;26591;43.264;26.940;2024-02-16T08:15:14;99757.28;;;5.60;83.23
40872;BME280;26591;43.264;26.940;2024-02-16T08:17:40;99753.31;;;5.54;83.41
40872;BME280;26591;43.264;26.940;2024-02-16T08:20:08;99748.44;;;5.49;82.81
40872;BME280;26591;43.264;26.940;2024-02-16T08:25:45;99752.47;;;5.54;82.72
40872;BME280;26591;43.264;26.940;2024-02-16T08:28:10;99754.97;;;5.44;83.56
40872;BME280;26591;43.264;26.940;2024-02-16T08:30:36;99759.19;;;5.58;83.01
40872;BME280;26591;43.264;26.940;2024-02-16T08:33:06;99762.75;;;5.57;83.00
40872;BME280;26591;43.264;26.940;2024-02-16T08:35:31;99759.19;;;5.69;82.87
40872;BME280;26591;43.264;26.940;2024-02-16T08:37:57;99755.25;;;5.75;83.14
40872;BME280;26591;43.264;26.940;2024-02-16T08:40:22;99766.84;;;5.61;83.51
40872;BME280;26591;43.264;26.940;2024-02-16T08:42:49;99758.09;;;5.60;83.16
40872;BME280;26591;43.264;26.940;2024-02-16T08:45:14;99766.13;;;5.70;82.74
40872;BME280;26591;43.264;26.940;2024-02-16T08:47:43;99761.00;;;5.69;83.33
40872;BME280;26591;43.264;26.940;2024-02-16T08:50:09;99770.66;;;5.68;83.51
40872;BME280;26591;43.264;26.940;2024-02-16T08:52:36;99762.44;;;5.73;83.57
40872;BME280;26591;43.264;26.940;2024-02-16T08:55:02;99765.53;;;5.78;82.93
40872;BME280;26591;43.264;26.940;2024-02-16T08:57:27;99763.97;;;5.64;83.03
40872;BME280;26591;43.264;26.940;2024-02-16T08:59:53;99769.91;;;5.55;83.86
40872;BME280;26591;43.264;26.940;2024-02-16T09:02:18;99770.28;;;5.61;83.57
40872;BME280;26591;43.264;26.940;2024-02-16T09:04:45;99773.47;;;5.54;83.59
40872;BME280;26591;43.264;26.940;2024-02-16T09:07:11;99776.94;;;5.43;84.21
40872;BME280;26591;43.264;26.940;2024-02-16T09:09:36;99780.56;;;5.64;83.78
40872;BME280;26591;43.264;26.940;2024-02-16T09:12:02;99781.78;;;5.72;82.98
40872;BME280;26591;43.264;26.940;2024-02-16T09:14:27;99783.31;;;5.74;82.52
40872;BME280;26591;43.264;26.940;2024-02-16T09:16:53;99776.47;;;5.60;82.45
40872;BME280;26591;43.264;26.940;2024-02-16T09:19:19;99773.97;;;5.47;83.20
40872;BME280;26591;43.264;26.940;2024-02-16T09:21:48;99777.44;;;5.59;82.84
40872;BME280;26591;43.264;26.940;2024-02-16T09:24:17;99770.78;;;5.67;82.71
40872;BME280;26591;43.264;26.940;2024-02-16T09:26:44;99778.16;;;5.61;83.04
40872;BME280;26591;43.264;26.940;2024-02-16T09:29:15;99780.31;;;5.56;82.60
40872;BME280;26591;43.264;26.940;2024-02-16T09:31:41;99777.69;;;5.56;82.13
40872;BME280;26591;43.264;26.940;2024-02-16T09:34:06;99782.00;;;5.57;82.59
40872;BME280;26591;43.264;26.940;2024-02-16T09:36:32;99783.75;;;5.57;82.30
40872;BME280;26591;43.264;26.940;2024-02-16T09:38:57;99785.16;;;5.85;81.77
40872;BME280;26591;43.264;26.940;2024-02-16T09:41:23;99779.59;;;5.65;81.67
40872;BME280;26591;43.264;26.940;2024-02-16T09:43:49;99784.88;;;5.88;81.54
40872;BME280;26591;43.264;26.940;2024-02-16T09:46:30;99782.38;;;5.75;81.03
40872;BME280;26591;43.264;26.940;2024-02-16T09:49:02;99782.72;;;5.71;81.57
40872;BME280;26591;43.264;26.940;2024-02-16T09:51:29;99788.00;;;5.93;80.96
40872;BME280;26591;43.264;26.940;2024-02-16T09:53:56;99783.03;;;6.13;80.02
40872;BME280;26591;43.264;26.940;2024-02-16T09:56:31;99775.16;;;6.13;79.34
40872;BME280;26591;43.264;26.940;2024-02-16T09:58:56;99776.84;;;6.14;79.80
40872;BME280;26591;43.264;26.940;2024-02-16T10:01:28;99778.88;;;6.22;79.22
40872;BME280;26591;43.264;26.940;2024-02-16T10:04:05;99769.78;;;6.37;78.65
40872;BME280;26591;43.264;26.940;2024-02-16T10:06:32;99767.50;;;6.33;78.37
40872;BME280;26591;43.264;26.940;2024-02-16T10:08:57;99758.22;;;6.17;79.10
40872;BME280;26591;43.264;26.940;2024-02-16T10:11:24;99756.38;;;6.29;78.61
40872;BME280;26591;43.264;26.940;2024-02-16T10:14:03;99762.56;;;6.62;81.33
40872;BME280;26591;43.264;26.940;2024-02-16T10:16:30;99759.38;;;6.91;79.54
40872;BME280;26591;43.264;26.940;2024-02-16T10:19:06;99750.72;;;7.00;78.24
40872;BME280;26591;43.264;26.940;2024-02-16T10:21:32;99747.94;;;6.69;76.37
40872;BME280;26591;43.264;26.940;2024-02-16T10:24:07;99750.16;;;6.53;76.26
40872;BME280;26591;43.264;26.940;2024-02-16T10:26:37;99746.91;;;6.61;76.44
40872;BME280;26591;43.264;26.940;2024-02-16T10:29:15;99748.63;;;6.28;77.41
40872;BME280;26591;43.264;26.940;2024-02-16T10:31:42;99747.06;;;6.25;77.75
40872;BME280;26591;43.264;26.940;2024-02-16T10:34:09;99745.53;;;6.22;77.40
40872;BME280;26591;43.264;26.940;2024-02-16T10:36:36;99748.16;;;6.22;77.84
40872;BME280;26591;43.264;26.940;2024-02-16T10:39:03;99746.84;;;6.05;78.32
40872;BME280;26591;43.264;26.940;2024-02-16T10:41:34;99748.38;;;6.19;78.55
40872;BME280;26591;43.264;26.940;2024-02-16T10:44:04;99749.94;;;6.10;78.85
40872;BME280;26591;43.264;26.940;2024-02-16T10:46:31;99744.56;;;6.23;78.89
40872;BME280;26591;43.264;26.940;2024-02-16T10:48:57;99743.50;;;6.37;79.01
40872;BME280;26591;43.264;26.940;2024-02-16T10:51:31;99739.38;;;6.67;79.28
40872;BME280;26591;43.264;26.940;2024-02-16T10:54:00;99747.53;;;6.53;78.97
40872;BME280;26591;43.264;26.940;2024-02-16T10:56:28;99738.03;;;6.73;77.34
40872;BME280;26591;43.264;26.940;2024-02-16T10:59:00;99751.19;;;6.73;77.03
40872;BME280;26591;43.264;26.940;2024-02-16T11:01:25;99739.56;;;6.32;76.93
40872;BME280;26591;43.264;26.940;2024-02-16T11:04:00;99749.94;;;6.33;76.18
40872;BME280;26591;43.264;26.940;2024-02-16T11:06:26;99749.69;;;6.25;75.69
40872;BME280;26591;43.264;26.940;2024-02-16T11:08:52;99746.94;;;6.04;75.92
40872;BME280;26591;43.264;26.940;2024-02-16T11:11:23;99748.25;;;6.32;74.91
40872;BME280;26591;43.264;26.940;2024-02-16T11:13:49;99741.31;;;6.54;74.41
40872;BME280;26591;43.264;26.940;2024-02-16T11:16:17;99733.75;;;6.49;73.43
40872;BME280;26591;43.264;26.940;2024-02-16T11:18:45;99739.88;;;6.50;75.49
40872;BME280;26591;43.264;26.940;2024-02-16T11:21:15;99734.91;;;6.24;75.19
40872;BME280;26591;43.264;26.940;2024-02-16T11:23:41;99735.94;;;6.33;74.83
40872;BME280;26591;43.264;26.940;2024-02-16T11:26:11;99735.44;;;6.50;74.38
40872;BME280;26591;43.264;26.940;2024-02-16T11:28:40;99733.97;;;6.69;74.20
40872;BME280;26591;43.264;26.940;2024-02-16T11:31:06;99732.72;;;6.84;73.92
40872;BME280;26591;43.264;26.940;2024-02-16T11:33:52;99734.44;;;6.74;74.13
40872;BME280;26591;43.264;26.940;2024-02-16T11:36:18;99736.22;;;7.06;75.46
40872;BME280;26591;43.264;26.940;2024-02-16T11:38:44;99726.16;;;6.79;74.08
40872;BME280;26591;43.264;26.940;2024-02-16T11:41:10;99734.88;;;6.79;73.79
40872;BME280;26591;43.264;26.940;2024-02-16T11:43:35;99725.84;;;6.72;74.05
40872;BME280;26591;43.264;26.940;2024-02-16T11:46:14;99726.03;;;6.80;73.95
40872;BME280;26591;43.264;26.940;2024-02-16T11:48:41;99717.91;;;6.83;74.11
40872;BME280;26591;43.264;26.940;2024-02-16T11:51:10;99726.16;;;6.79;73.79
40872;BME280;26591;43.264;26.940;2024-02-16T11:53:35;99720.63;;;6.61;74.74
40872;BME280;26591;43.264;26.940;2024-02-16T11:56:01;99712.03;;;6.36;75.76
40872;BME280;26591;43.264;26.940;2024-02-16T11:58:27;99711.25;;;6.24;76.51
40872;BME280;26591;43.264;26.940;2024-02-16T12:00:53;99709.56;;;6.11;76.62
40872;BME280;26591;43.264;26.940;2024-02-16T12:03:23;99710.84;;;6.40;75.82
40872;BME280;26591;43.264;26.940;2024-02-16T12:05:58;99711.59;;;6.31;75.36
40872;BME280;26591;43.264;26.940;2024-02-16T12:08:35;99708.22;;;6.40;75.66
40872;BME280;26591;43.264;26.940;2024-02-16T12:11:02;99713.81;;;6.47;75.20
40872;BME280;26591;43.264;26.940;2024-02-16T12:13:27;99713.72;;;6.37;75.82
40872;BME280;26591;43.264;26.940;2024-02-16T12:15:53;99709.44;;;6.24;76.32
40872;BME280;26591;43.264;26.940;2024-02-16T12:18:26;99718.88;;;6.38;76.20
40872;BME280;26591;43.264;26.940;2024-02-16T12:23:29;99715.50;;;6.48;76.91
40872;BME280;26591;43.264;26.940;2024-02-16T12:25:58;99719.09;;;6.35;77.13
40872;BME280;26591;43.264;26.940;2024-02-16T12:28:31;99718.88;;;6.38;77.70
40872;BME280;26591;43.264;26.940;2024-02-16T12:31:00;99716.59;;;6.22;77.38
40872;BME280;26591;43.264;26.940;2024-02-16T12:33:26;99711.81;;;6.28;76.95
40872;BME280;26591;43.264;26.940;2024-02-16T12:35:52;99707.47;;;6.49;76.18
40872;BME280;26591;43.264;26.940;2024-02-16T12:38:18;99711.22;;;6.13;76.78
40872;BME280;26591;43.264;26.940;2024-02-16T12:40:48;99710.19;;;6.15;76.21
40872;BME280;26591;43.264;26.940;2024-02-16T12:43:13;99715.66;;;6.23;76.18
40872;BME280;26591;43.264;26.940;2024-02-16T12:45:39;99718.53;;;6.32;76.72
40872;BME280;26591;43.264;26.940;2024-02-16T12:48:05;99711.94;;;6.26;76.61
40872;BME280;26591;43.264;26.940;2024-02-16T12:50:31;99718.00;;;6.49;75.93
40872;BME280;26591;43.264;26.940;2024-02-16T12:52:58;99714.72;;;6.68;75.72
40872;BME280;26591;43.264;26.940;2024-02-16T12:55:24;99714.63;;;6.47;76.10
40872;BME280;26591;43.264;26.940;2024-02-16T12:57:50;99704.72;;;6.51;75.63
40872;BME280;26591;43.264;26.940;2024-02-16T13:00:19;99721.16;;;6.32;75.77
40872;BME280;26591;43.264;26.940;2024-02-16T13:02:44;99710.03;;;6.28;77.62
40872;BME280;26591;43.264;26.940;2024-02-16T13:05:10;99709.31;;;6.26;76.36
40872;BME280;26591;43.264;26.940;2024-02-16T13:07:39;99709.22;;;6.05;76.96
40872;BME280;26591;43.264;26.940;2024-02-16T13:10:07;99708.25;;;6.29;76.24
40872;BME280;26591;43.264;26.940;2024-02-16T13:12:33;99707.66;;;6.14;77.03